createdAt,value
2022-10-23T00:02:14.100Z,96643.59
2022-10-23T00:04:40.498Z,96637.97
2022-10-23T00:07:06.873Z,96636.84
2022-10-23T00:09:33.256Z,96638.69
2022-10-23T00:11:59.639Z,96635.16
2022-10-23T00:14:26.009Z,96639.69
2022-10-23T00:16:52.377Z,96637.78
2022-10-23T00:19:18.744Z,96633.28
2022-10-23T00:21:45.110Z,96635.47
2022-10-23T00:24:11.478Z,96640.78
2022-10-23T00:26:37.849Z,96632.78
2022-10-23T00:29:04.223Z,96630.53
2022-10-23T00:31:30.588Z,96629.81
2022-10-23T00:33:56.959Z,96632.44
2022-10-23T00:36:23.322Z,96629.59
2022-10-23T00:38:49.688Z,96634.88
2022-10-23T00:41:16.058Z,96633.34
2022-10-23T00:43:42.422Z,96630.59
2022-10-23T00:46:08.800Z,96640.22
2022-10-23T00:48:35.178Z,96633.34
2022-10-23T00:51:01.567Z,96633.28
2022-10-23T00:53:27.940Z,96638.97
2022-10-23T00:55:54.295Z,96627.59
2022-10-23T00:58:20.663Z,96626.75
2022-10-23T01:00:47.038Z,96623.00
2022-10-23T01:03:13.404Z,96628.41
2022-10-23T01:05:39.821Z,96623.91
2022-10-23T01:08:06.206Z,96620.63
2022-10-23T01:10:32.572Z,96618.75
2022-10-23T01:12:58.942Z,96627.53
2022-10-23T01:15:25.305Z,96625.97
2022-10-23T01:17:51.897Z,96629.78
2022-10-23T01:20:18.318Z,96624.00
2022-10-23T01:22:44.800Z,96625.56
2022-10-23T01:25:11.240Z,96620.63
2022-10-23T01:27:37.596Z,96622.97
2022-10-23T01:30:03.978Z,96618.75
2022-10-23T01:32:30.337Z,96621.75
2022-10-23T01:34:56.702Z,96621.34
2022-10-23T01:37:23.079Z,96614.19
2022-10-23T01:39:49.458Z,96617.53
2022-10-23T01:42:15.853Z,96605.31
2022-10-23T01:44:42.210Z,96615.66
2022-10-23T01:47:08.578Z,96614.09
2022-10-23T01:49:34.975Z,96616.00
2022-10-23T01:52:01.364Z,96611.56
2022-10-23T01:54:27.739Z,96604.97
2022-10-23T01:56:54.099Z,96599.50
2022-10-23T01:59:20.569Z,96603.38
2022-10-23T02:01:47.031Z,96595.00
2022-10-23T02:04:13.483Z,96590.44
2022-10-23T02:06:39.865Z,96583.13
2022-10-23T02:09:06.229Z,96582.03
2022-10-23T02:11:32.604Z,96580.25
2022-10-23T02:13:58.964Z,96581.72
2022-10-23T02:16:25.341Z,96583.28
2022-10-23T02:18:51.725Z,96579.34
2022-10-23T02:21:18.091Z,96584.09
2022-10-23T02:23:44.466Z,96574.06
2022-10-23T02:26:10.838Z,96571.38
2022-10-23T02:28:37.222Z,96561.09
2022-10-23T02:31:03.582Z,96546.88
2022-10-23T02:33:29.953Z,96550.69
2022-10-23T02:35:56.310Z,96551.53
2022-10-23T02:38:22.682Z,96538.50
2022-10-23T02:40:49.063Z,96553.44
2022-10-23T02:43:15.424Z,96549.16
2022-10-23T02:48:28.080Z,96549.84
2022-10-23T02:50:54.462Z,96551.75
2022-10-23T02:53:20.826Z,96547.63
2022-10-23T02:55:47.197Z,96545.00
2022-10-23T02:58:13.570Z,96551.44
2022-10-23T03:00:39.942Z,96553.31
2022-10-23T03:03:06.328Z,96548.75
2022-10-23T03:05:32.696Z,96547.53
2022-10-23T03:07:59.052Z,96546.75
2022-10-23T03:10:25.430Z,96538.75
2022-10-23T03:12:51.792Z,96541.31
2022-10-23T03:15:18.162Z,96536.81
2022-10-23T03:17:44.533Z,96543.34
2022-10-23T03:20:10.915Z,96541.38
2022-10-23T03:22:37.272Z,96541.44
2022-10-23T03:25:03.630Z,96532.38
2022-10-23T03:27:30.018Z,96531.13
2022-10-23T03:29:56.395Z,96516.25
2022-10-23T03:32:22.766Z,96520.75
2022-10-23T03:34:49.142Z,96520.81
2022-10-23T03:37:15.509Z,96523.78
2022-10-23T03:39:42.271Z,96515.88
2022-10-23T03:42:08.626Z,96519.25
2022-10-23T03:44:34.995Z,96518.00
2022-10-23T03:47:01.376Z,96513.44
2022-10-23T03:49:27.738Z,96529.59
2022-10-23T03:51:54.126Z,96526.91
2022-10-23T03:54:20.498Z,96533.38
2022-10-23T03:56:46.870Z,96539.00
2022-10-23T03:59:13.228Z,96539.69
2022-10-23T04:01:39.676Z,96532.91
2022-10-23T04:04:06.112Z,96533.31
2022-10-23T04:06:32.480Z,96533.63
2022-10-23T04:08:59.004Z,96534.50
2022-10-23T04:11:25.416Z,96541.63
2022-10-23T04:13:51.772Z,96533.63
2022-10-23T04:16:18.142Z,96535.09
2022-10-23T04:18:44.519Z,96535.13
2022-10-23T04:21:10.889Z,96537.47
2022-10-23T04:23:37.260Z,96532.47
2022-10-23T04:26:03.622Z,96537.81
2022-10-23T04:28:29.997Z,96539.84
2022-10-23T04:30:56.357Z,96533.66
2022-10-23T04:33:22.739Z,96534.44
2022-10-23T04:35:49.104Z,96537.81
2022-10-23T04:38:15.477Z,96538.88
2022-10-23T04:40:41.854Z,96533.25
2022-10-23T04:43:08.208Z,96534.03
2022-10-23T04:45:34.590Z,96536.28
2022-10-23T04:48:00.961Z,96533.63
2022-10-23T04:50:27.328Z,96534.75
2022-10-23T04:52:53.693Z,96532.06
2022-10-23T04:55:20.066Z,96535.09
2022-10-23T04:57:46.449Z,96530.09
2022-10-23T05:00:12.836Z,96533.03
2022-10-23T05:02:39.223Z,96540.25
2022-10-23T05:05:05.601Z,96538.47
2022-10-23T05:07:31.956Z,96537.81
2022-10-23T05:09:58.317Z,96542.66
2022-10-23T05:12:24.699Z,96552.22
2022-10-23T05:14:51.069Z,96540.00
2022-10-23T05:17:17.439Z,96535.44
2022-10-23T05:19:43.824Z,96530.09
2022-10-23T05:22:10.187Z,96546.38
2022-10-23T05:24:36.545Z,96545.00
2022-10-23T05:27:02.913Z,96537.28
2022-10-23T05:29:29.279Z,96539.78
2022-10-23T05:31:55.651Z,96544.56
2022-10-23T05:34:22.009Z,96543.81
2022-10-23T05:36:48.367Z,96533.50
2022-10-23T05:39:14.746Z,96523.59
2022-10-23T05:41:41.210Z,96525.47
2022-10-23T05:44:07.571Z,96526.66
2022-10-23T05:46:33.946Z,96531.94
2022-10-23T05:51:46.592Z,96534.53
2022-10-23T05:54:12.953Z,96534.88
2022-10-23T05:56:39.318Z,96532.56
2022-10-23T05:59:05.684Z,96529.53
2022-10-23T06:01:32.126Z,96529.81
2022-10-23T06:03:58.570Z,96525.38
2022-10-23T06:06:24.938Z,96540.47
2022-10-23T06:08:51.326Z,96534.94
2022-10-23T06:11:17.698Z,96531.00
2022-10-23T06:13:44.119Z,96544.06
2022-10-23T06:16:10.519Z,96538.66
2022-10-23T06:18:36.892Z,96539.00
2022-10-23T06:21:03.251Z,96532.50
2022-10-23T06:23:29.608Z,96543.88
2022-10-23T06:25:55.995Z,96545.41
2022-10-23T06:28:22.358Z,96547.00
2022-10-23T06:30:48.733Z,96558.06
2022-10-23T06:33:15.100Z,96560.66
2022-10-23T06:35:41.463Z,96559.19
2022-10-23T06:38:07.837Z,96556.22
2022-10-23T06:40:34.196Z,96557.63
2022-10-23T06:43:00.557Z,96560.72
2022-10-23T06:45:26.919Z,96560.78
2022-10-23T06:47:53.307Z,96546.97
2022-10-23T06:50:19.669Z,96545.41
2022-10-23T06:52:47.385Z,96542.75
2022-10-23T06:55:14.292Z,96540.50
2022-10-23T06:57:40.949Z,96532.50
2022-10-23T07:00:07.540Z,96540.91
2022-10-23T07:02:33.892Z,96550.09
2022-10-23T07:05:00.265Z,96555.38
2022-10-23T07:07:26.637Z,96552.72
2022-10-23T07:09:52.998Z,96559.53
2022-10-23T07:12:19.367Z,96544.78
2022-10-23T07:14:45.747Z,96550.44
2022-10-23T07:17:12.118Z,96556.84
2022-10-23T07:19:38.494Z,96559.81
2022-10-23T07:22:04.879Z,96549.91
2022-10-23T07:24:31.296Z,96555.66
2022-10-23T07:26:57.662Z,96546.47
2022-10-23T07:29:24.030Z,96538.13
2022-10-23T07:31:50.415Z,96531.66
2022-10-23T07:34:16.794Z,96530.13
2022-10-23T07:36:43.164Z,96532.78
2022-10-23T07:39:09.540Z,96530.53
2022-10-23T07:41:35.910Z,96533.19
2022-10-23T07:44:02.287Z,96531.66
2022-10-23T07:46:28.655Z,96532.50
2022-10-23T07:48:55.025Z,96536.63
2022-10-23T07:51:21.389Z,96536.72
2022-10-23T07:53:47.758Z,96528.75
2022-10-23T07:56:14.108Z,96535.50
2022-10-23T07:58:40.488Z,96527.16
2022-10-23T08:01:06.923Z,96534.06
2022-10-23T08:03:33.308Z,96531.66
2022-10-23T08:05:59.661Z,96536.63
2022-10-23T08:08:26.021Z,96525.19
2022-10-23T08:10:52.384Z,96535.84
2022-10-23T08:13:18.751Z,96536.97
2022-10-23T08:15:45.123Z,96527.16
2022-10-23T08:18:11.490Z,96530.94
2022-10-23T08:20:37.854Z,96538.59
2022-10-23T08:23:04.226Z,96526.75
2022-10-23T08:28:16.922Z,96517.91
2022-10-23T08:30:43.297Z,96524.78
2022-10-23T08:33:09.677Z,96531.66
2022-10-23T08:35:36.032Z,96528.22
2022-10-23T08:38:02.407Z,96522.81
2022-10-23T08:40:28.770Z,96524.78
2022-10-23T08:42:55.208Z,96524.38
2022-10-23T08:45:21.608Z,96527.81
2022-10-23T08:47:47.968Z,96525.63
2022-10-23T08:50:14.423Z,96533.66
2022-10-23T08:52:41.158Z,96515.28
2022-10-23T08:55:07.726Z,96517.63
2022-10-23T08:57:34.093Z,96511.94
2022-10-23T09:00:00.459Z,96518.03
2022-10-23T09:02:26.936Z,96506.59
2022-10-23T09:04:53.362Z,96513.41
2022-10-23T09:07:19.745Z,96512.72
2022-10-23T09:09:46.124Z,96514.59
2022-10-23T09:12:12.481Z,96498.94
2022-10-23T09:14:38.854Z,96502.38
2022-10-23T09:17:05.285Z,96506.94
2022-10-23T09:19:31.674Z,96499.63
2022-10-23T09:21:58.044Z,96499.72
2022-10-23T09:24:24.429Z,96499.38
2022-10-23T09:26:50.831Z,96494.44
2022-10-23T09:29:17.234Z,96495.25
2022-10-23T09:31:43.610Z,96488.03
2022-10-23T09:34:11.785Z,96482.34
2022-10-23T09:36:38.247Z,96487.34
2022-10-23T09:39:04.622Z,96485.13
2022-10-23T09:41:31.002Z,96482.06
2022-10-23T09:43:57.364Z,96484.69
2022-10-23T09:46:23.749Z,96475.13
2022-10-23T09:48:50.104Z,96475.31
2022-10-23T09:51:16.457Z,96488.94
2022-10-23T09:53:42.825Z,96492.69
2022-10-23T09:56:09.190Z,96501.13
2022-10-23T09:58:35.611Z,96500.75
2022-10-23T10:01:02.152Z,96491.66
2022-10-23T10:03:28.614Z,96498.63
2022-10-23T10:05:54.991Z,96501.31
2022-10-23T10:08:21.361Z,96502.66
2022-10-23T10:10:47.718Z,96507.97
2022-10-23T10:13:15.058Z,96508.25
2022-10-23T10:15:41.507Z,96496.81
2022-10-23T10:18:07.870Z,96505.19
2022-10-23T10:20:34.252Z,96502.09
2022-10-23T10:23:00.616Z,96501.47
2022-10-23T10:25:27.006Z,96504.47
2022-10-23T10:27:53.374Z,96507.63
2022-10-23T10:30:19.761Z,96523.16
2022-10-23T10:32:46.136Z,96515.94
2022-10-23T10:35:12.512Z,96527.81
2022-10-23T10:37:38.868Z,96514.69
2022-10-23T10:40:05.352Z,96511.78
2022-10-23T10:42:31.721Z,96512.16
2022-10-23T10:44:58.076Z,96513.19
2022-10-23T10:47:24.442Z,96512.41
2022-10-23T10:49:50.826Z,96507.16
2022-10-23T10:52:17.205Z,96504.47
2022-10-23T10:54:43.581Z,96505.56
2022-10-23T10:57:09.945Z,96501.38
2022-10-23T10:59:36.308Z,96502.50
2022-10-23T11:02:02.776Z,96500.59
2022-10-23T11:04:29.219Z,96483.41
2022-10-23T11:06:55.582Z,96484.97
2022-10-23T11:09:21.957Z,96483.06
2022-10-23T11:11:48.322Z,96475.47
2022-10-23T11:14:14.681Z,96467.06
2022-10-23T11:16:41.053Z,96473.03
2022-10-23T11:19:11.365Z,96466.97
2022-10-23T11:21:40.296Z,96443.34
2022-10-23T11:24:06.716Z,96442.56
2022-10-23T11:26:33.119Z,96444.16
2022-10-23T11:28:59.498Z,96438.47
2022-10-23T11:31:25.853Z,96435.94
2022-10-23T11:33:52.208Z,96436.50
2022-10-23T11:36:18.591Z,96436.97
2022-10-23T11:38:44.953Z,96416.50
2022-10-23T11:41:11.343Z,96430.69
2022-10-23T11:43:37.709Z,96447.75
2022-10-23T11:46:04.074Z,96442.03
2022-10-23T11:48:30.444Z,96435.28
2022-10-23T11:50:59.083Z,96423.84
2022-10-23T11:53:27.850Z,96419.63
2022-10-23T11:55:54.218Z,96409.34
2022-10-23T11:58:20.588Z,96419.16
2022-10-23T12:00:46.959Z,96408.09
2022-10-23T12:03:13.370Z,96420.31
2022-10-23T12:05:39.733Z,96419.53
2022-10-23T12:08:06.100Z,96406.59
2022-10-23T12:10:32.478Z,96414.66
2022-10-23T12:12:58.842Z,96388.69
2022-10-23T12:15:25.218Z,96405.47
2022-10-23T12:17:51.583Z,96396.97
2022-10-23T12:20:17.961Z,96389.41
2022-10-23T12:22:44.325Z,96395.91
2022-10-23T12:25:10.676Z,96388.06
2022-10-23T12:27:37.040Z,96375.03
2022-10-23T12:30:03.394Z,96376.22
2022-10-23T12:32:29.761Z,96362.16
2022-10-23T12:34:56.121Z,96374.38
2022-10-23T12:37:22.498Z,96366.00
2022-10-23T12:39:48.864Z,96353.78
2022-10-23T12:42:15.221Z,96356.44
2022-10-23T12:44:41.601Z,96360.25
2022-10-23T12:47:07.956Z,96345.75
2022-10-23T12:49:34.341Z,96306.50
2022-10-23T12:52:00.705Z,96317.16
2022-10-23T12:54:27.084Z,96304.53
2022-10-23T12:56:53.468Z,96292.38
2022-10-23T12:59:19.845Z,96299.28
2022-10-23T13:01:50.424Z,96299.19
2022-10-23T13:07:05.181Z,96313.75
2022-10-23T13:09:31.549Z,96307.97
2022-10-23T13:11:57.924Z,96313.66
2022-10-23T13:14:24.302Z,96307.63
2022-10-23T13:16:50.665Z,96308.00
2022-10-23T13:19:17.041Z,96314.88
2022-10-23T13:21:43.408Z,96310.66
2022-10-23T13:24:09.790Z,96315.22
2022-10-23T13:26:36.149Z,96306.03
2022-10-23T13:29:07.316Z,96302.59
2022-10-23T13:31:35.845Z,96324.34
2022-10-23T13:34:02.208Z,96310.97
2022-10-23T13:36:28.582Z,96309.88
2022-10-23T13:38:54.946Z,96304.16
2022-10-23T13:41:21.326Z,96307.63
2022-10-23T13:43:47.693Z,96327.78
2022-10-23T13:46:14.054Z,96322.75
2022-10-23T13:48:40.434Z,96342.19
2022-10-23T13:51:06.795Z,96339.13
2022-10-23T13:53:33.162Z,96344.84
2022-10-23T13:55:59.525Z,96334.50
2022-10-23T13:58:25.914Z,96354.38
2022-10-23T14:00:52.276Z,96372.22
2022-10-23T14:03:18.669Z,96391.44
2022-10-23T14:05:45.052Z,96358.88
2022-10-23T14:08:11.441Z,96354.91
2022-10-23T14:10:37.814Z,96304.44
2022-10-23T14:13:04.200Z,96318.53
2022-10-23T14:15:30.573Z,96274.25
2022-10-23T14:17:59.470Z,96280.03
2022-10-23T14:20:27.938Z,96303.25
2022-10-23T14:22:54.391Z,96321.16
2022-10-23T14:25:20.754Z,96315.75
2022-10-23T14:27:47.169Z,96323.84
2022-10-23T14:30:13.571Z,96299.47
2022-10-23T14:32:39.934Z,96300.91
2022-10-23T14:35:06.310Z,96296.03
2022-10-23T14:37:32.679Z,96287.59
2022-10-23T14:39:59.036Z,96262.03
2022-10-23T14:42:25.407Z,96243.03
2022-10-23T14:44:51.776Z,96244.28
2022-10-23T14:47:18.143Z,96263.66
2022-10-23T14:49:44.511Z,96275.84
2022-10-23T14:52:10.886Z,96240.38
2022-10-23T14:54:37.253Z,96235.47
2022-10-23T14:57:03.624Z,96254.50
2022-10-23T14:59:29.986Z,96252.56
2022-10-23T15:01:56.363Z,96255.34
2022-10-23T15:04:22.730Z,96228.28
2022-10-23T15:06:49.097Z,96238.88
2022-10-23T15:09:15.849Z,96231.72
2022-10-23T15:11:42.268Z,96229.81
2022-10-23T15:14:08.642Z,96221.50
2022-10-23T15:16:35.046Z,96218.69
2022-10-23T15:19:01.425Z,96224.09
2022-10-23T15:21:27.804Z,96224.47
2022-10-23T15:23:54.168Z,96215.72
2022-10-23T15:26:20.537Z,96207.31
2022-10-23T15:28:46.900Z,96207.34
2022-10-23T15:31:13.274Z,96232.22
2022-10-23T15:33:39.654Z,96220.69
2022-10-23T15:36:06.020Z,96227.25
2022-10-23T15:38:32.384Z,96224.66
2022-10-23T15:40:58.744Z,96225.81
2022-10-23T15:43:25.113Z,96243.78
2022-10-23T15:45:51.476Z,96243.81
2022-10-23T15:48:17.833Z,96241.56
2022-10-23T15:50:44.188Z,96261.28
2022-10-23T15:53:10.552Z,96251.03
2022-10-23T15:55:36.913Z,96259.03
2022-10-23T15:58:03.290Z,96249.81
2022-10-23T16:00:29.702Z,96252.75
2022-10-23T16:02:56.168Z,96247.41
2022-10-23T16:05:22.558Z,96247.91
2022-10-23T16:07:48.912Z,96235.59
2022-10-23T16:10:15.596Z,96241.44
2022-10-23T16:12:42.363Z,96233.72
2022-10-23T16:15:09.010Z,96232.94
2022-10-23T16:17:35.391Z,96227.25
2022-10-23T16:20:01.770Z,96245.97
2022-10-23T16:22:28.137Z,96244.13
2022-10-23T16:24:54.504Z,96260.47
2022-10-23T16:27:20.868Z,96262.34
2022-10-23T16:29:47.251Z,96257.41
2022-10-23T16:32:13.616Z,96273.81
2022-10-23T16:34:39.981Z,96260.84
2022-10-23T16:37:06.335Z,96270.75
2022-10-23T16:39:32.704Z,96269.97
2022-10-23T16:41:59.069Z,96285.22
2022-10-23T16:44:25.444Z,96288.28
2022-10-23T16:46:51.831Z,96296.28
2022-10-23T16:49:18.184Z,96290.66
2022-10-23T16:51:44.550Z,96291.06
2022-10-23T16:54:10.930Z,96303.19
2022-10-23T16:56:37.292Z,96315.44
2022-10-23T16:59:03.680Z,96310.84
2022-10-23T17:01:30.142Z,96303.22
2022-10-23T17:03:56.598Z,96313.09
2022-10-23T17:06:22.972Z,96337.78
2022-10-23T17:08:49.334Z,96367.88
2022-10-23T17:11:15.692Z,96355.22
2022-10-23T17:13:42.067Z,96356.34
2022-10-23T17:16:08.484Z,96359.03
2022-10-23T17:18:37.596Z,96365.19
2022-10-23T17:21:05.072Z,96358.31
2022-10-23T17:23:31.450Z,96356.44
2022-10-23T17:25:57.822Z,96378.44
2022-10-23T17:28:24.186Z,96362.84
2022-10-23T17:30:50.557Z,96378.13
2022-10-23T17:33:16.909Z,96404.06
2022-10-23T17:35:43.268Z,96414.28
2022-10-23T17:38:09.642Z,96431.91
2022-10-23T17:40:36.053Z,96452.78
2022-10-23T17:43:02.462Z,96461.19
2022-10-23T17:45:28.834Z,96462.38
2022-10-23T17:47:55.199Z,96459.38
2022-10-23T17:50:21.575Z,96466.91
2022-10-23T17:52:47.939Z,96467.94
2022-10-23T17:55:14.399Z,96478.31
2022-10-23T17:57:40.981Z,96489.78
2022-10-23T18:00:07.500Z,96492.81
2022-10-23T18:02:33.900Z,96491.28
2022-10-23T18:05:00.322Z,96472.16
2022-10-23T18:07:26.688Z,96471.41
2022-10-23T18:09:53.139Z,96488.59
2022-10-23T18:12:19.578Z,96493.47
2022-10-23T18:14:45.945Z,96496.91
2022-10-23T18:17:12.326Z,96494.63
2022-10-23T18:19:38.675Z,96512.28
2022-10-23T18:22:05.082Z,96485.47
2022-10-23T18:24:31.477Z,96492.97
2022-10-23T18:26:57.844Z,96479.63
2022-10-23T18:29:24.210Z,96488.78
2022-10-23T18:31:50.574Z,96479.19
2022-10-23T18:34:16.966Z,96468.88
2022-10-23T18:36:43.337Z,96473.84
2022-10-23T18:39:09.705Z,96459.44
2022-10-23T18:41:36.078Z,96488.69
2022-10-23T18:44:02.441Z,96414.28
2022-10-23T18:46:28.816Z,96435.69
2022-10-23T18:48:55.225Z,96395.69
2022-10-23T18:51:21.591Z,96404.06
2022-10-23T18:53:47.969Z,96403.69
2022-10-23T18:56:14.325Z,96434.56
2022-10-23T18:58:40.693Z,96474.16
2022-10-23T19:01:07.131Z,96457.09
2022-10-23T19:03:33.573Z,96462.06
2022-10-23T19:05:59.932Z,96493.94
2022-10-23T19:08:26.306Z,96461.59
2022-10-23T19:10:52.680Z,96478.28
2022-10-23T19:13:19.049Z,96452.00
2022-10-23T19:15:45.429Z,96422.28
2022-10-23T19:18:11.789Z,96446.72
2022-10-23T19:20:38.171Z,96484.41
2022-10-23T19:23:04.529Z,96488.22
2022-10-23T19:25:30.991Z,96504.28
2022-10-23T19:27:57.349Z,96477.19
2022-10-23T19:30:23.711Z,96470.72
2022-10-23T19:32:50.087Z,96472.97
2022-10-23T19:35:16.449Z,96468.06
2022-10-23T19:37:42.940Z,96464.25
2022-10-23T19:40:09.525Z,96503.22
2022-10-23T19:42:35.910Z,96493.94
2022-10-23T19:45:02.270Z,96465.09
2022-10-23T19:47:28.628Z,96469.31
2022-10-23T19:49:54.997Z,96464.78
2022-10-23T19:52:21.372Z,96452.88
2022-10-23T19:54:47.813Z,96470.78
2022-10-23T19:57:14.597Z,96478.44
2022-10-23T19:59:41.849Z,96493.59
2022-10-23T20:02:08.405Z,96484.09
2022-10-23T20:04:34.913Z,96471.19
2022-10-23T20:07:01.277Z,96465.50
2022-10-23T20:09:27.649Z,96458.63
2022-10-23T20:11:54.015Z,96457.03
2022-10-23T20:14:20.373Z,96459.34
2022-10-23T20:16:46.746Z,96458.28
2022-10-23T20:19:13.192Z,96456.47
2022-10-23T20:21:39.651Z,96450.78
2022-10-23T20:24:06.029Z,96442.78
2022-10-23T20:26:32.398Z,96448.63
2022-10-23T20:28:58.756Z,96459.94
2022-10-23T20:31:25.134Z,96453.25
2022-10-23T20:33:51.512Z,96442.16
2022-10-23T20:36:17.872Z,96450.13
2022-10-23T20:38:44.242Z,96459.25
2022-10-23T20:41:10.604Z,96474.19
2022-10-23T20:43:37.575Z,96476.44
2022-10-23T20:46:03.950Z,96489.78
2022-10-23T20:48:30.367Z,96484.03
2022-10-23T20:50:56.742Z,96466.78
2022-10-23T20:53:23.121Z,96472.63
2022-10-23T20:55:49.480Z,96463.50
2022-10-23T20:58:15.858Z,96489.44
2022-10-23T21:00:44.972Z,96518.81
2022-10-23T21:03:11.385Z,96522.66
2022-10-23T21:05:37.760Z,96504.75
2022-10-23T21:08:04.121Z,96510.47
2022-10-23T21:10:30.487Z,96476.97
2022-10-23T21:12:56.863Z,96474.00
2022-10-23T21:15:23.215Z,96475.91
2022-10-23T21:17:49.621Z,96467.53
2022-10-23T21:20:15.980Z,96480.88
2022-10-23T21:22:42.687Z,96487.41
2022-10-23T21:25:09.265Z,96473.28
2022-10-23T21:27:35.634Z,96496.13
2022-10-23T21:30:02.018Z,96497.47
2022-10-23T21:32:28.378Z,96489.13
2022-10-23T21:34:54.742Z,96478.53
2022-10-23T21:37:21.155Z,96470.53
2022-10-23T21:39:47.516Z,96459.47
2022-10-23T21:42:13.894Z,96452.66
2022-10-23T21:44:40.312Z,96466.69
2022-10-23T21:47:06.691Z,96479.69
2022-10-23T21:49:33.060Z,96445.34
2022-10-23T21:51:59.435Z,96436.69
2022-10-23T21:54:25.793Z,96429.50
2022-10-23T21:56:52.149Z,96436.16
2022-10-23T21:59:18.514Z,96431.66
2022-10-23T22:01:45.057Z,96433.53
2022-10-23T22:04:11.533Z,96445.31
2022-10-23T22:06:37.903Z,96456.72
2022-10-23T22:09:04.265Z,96455.09
2022-10-23T22:11:30.640Z,96448.22
2022-10-23T22:13:57.010Z,96446.69
2022-10-23T22:16:23.373Z,96436.00
2022-10-23T22:18:49.746Z,96449.34
2022-10-23T22:21:16.105Z,96458.94
2022-10-23T22:23:42.465Z,96463.16
2022-10-23T22:26:08.833Z,96474.91
2022-10-23T22:28:35.207Z,96483.78
2022-10-23T22:31:01.574Z,96468.19
2022-10-23T22:33:27.946Z,96457.09
2022-10-23T22:35:54.319Z,96437.66
2022-10-23T22:38:20.685Z,96433.16
2022-10-23T22:40:47.071Z,96426.19
2022-10-23T22:43:13.429Z,96430.06
2022-10-23T22:45:39.801Z,96437.25
2022-10-23T22:48:06.167Z,96455.56
2022-10-23T22:50:32.525Z,96458.59
2022-10-23T22:52:58.901Z,96462.31
2022-10-23T22:55:25.268Z,96464.97
2022-10-23T22:57:51.632Z,96463.50
2022-10-23T23:00:17.999Z,96469.56
2022-10-23T23:02:44.374Z,96472.28
2022-10-23T23:05:10.748Z,96479.47
2022-10-23T23:07:37.112Z,96484.38
2022-10-23T23:10:03.760Z,96486.81
2022-10-23T23:12:30.127Z,96486.28
2022-10-23T23:14:56.480Z,96498.56
2022-10-23T23:17:22.857Z,96487.53
2022-10-23T23:19:49.212Z,96494.28
2022-10-23T23:22:15.611Z,96487.84
2022-10-23T23:24:42.005Z,96491.28
2022-10-23T23:27:08.360Z,96485.00
2022-10-23T23:29:34.734Z,96491.84
2022-10-23T23:32:01.094Z,96501.47
2022-10-23T23:34:27.468Z,96498.19
2022-10-23T23:36:53.851Z,96493.81
2022-10-23T23:39:20.253Z,96485.94
2022-10-23T23:41:46.655Z,96496.81
2022-10-23T23:44:13.034Z,96499.56
2022-10-23T23:46:39.387Z,96520.81
2022-10-23T23:49:05.793Z,96506.69
2022-10-23T23:51:32.165Z,96491.84
2022-10-23T23:53:58.534Z,96503.69
2022-10-23T23:56:24.908Z,96503.25
2022-10-23T23:58:51.271Z,96505.31
